createdAt,value
2022-12-24T00:03:25.258Z,88.05
2022-12-24T00:08:27.200Z,88.00
2022-12-24T00:13:28.958Z,87.88
2022-12-24T00:18:31.157Z,87.87
2022-12-24T00:23:33.134Z,87.78
2022-12-24T00:28:35.146Z,87.80
2022-12-24T00:33:36.950Z,87.94
2022-12-24T00:38:39.357Z,87.59
2022-12-24T00:43:41.186Z,87.46
2022-12-24T00:48:43.067Z,87.29
2022-12-24T00:53:44.901Z,87.21
2022-12-24T00:58:46.760Z,87.02
2022-12-24T01:03:49.362Z,86.65
2022-12-24T01:08:51.539Z,86.66
2022-12-24T01:13:53.423Z,86.18
2022-12-24T01:18:55.392Z,85.79
2022-12-24T01:23:57.280Z,85.49
2022-12-24T01:28:59.671Z,85.50
2022-12-24T01:34:01.530Z,85.21
2022-12-24T01:39:04.331Z,85.05
2022-12-24T01:44:21.499Z,84.59
2022-12-24T01:49:23.580Z,84.39
2022-12-24T01:54:35.595Z,83.85
2022-12-24T01:59:39.224Z,83.60
2022-12-24T02:04:46.781Z,83.78
2022-12-24T02:09:53.356Z,83.84
2022-12-24T02:14:55.516Z,83.99
2022-12-24T02:20:12.587Z,84.33
2022-12-24T02:25:17.344Z,84.25
2022-12-24T02:30:34.816Z,84.24
2022-12-24T02:35:51.438Z,83.97
2022-12-24T02:41:27.215Z,83.79
2022-12-24T02:46:32.335Z,83.68
2022-12-24T02:51:34.248Z,83.72
2022-12-24T02:57:19.081Z,83.84
2022-12-24T03:02:46.080Z,84.01
2022-12-24T03:08:06.471Z,84.01
2022-12-24T03:13:16.021Z,84.19
2022-12-24T03:18:21.165Z,84.05
2022-12-24T03:23:23.008Z,84.09
2022-12-24T03:28:27.799Z,84.25
2022-12-24T03:33:29.864Z,84.23
2022-12-24T03:38:31.928Z,84.28
2022-12-24T03:43:33.958Z,84.43
2022-12-24T03:48:36.661Z,84.23
2022-12-24T03:53:38.486Z,84.50
2022-12-24T03:58:40.389Z,84.40
2022-12-24T04:03:42.791Z,84.28
2022-12-24T04:08:45.016Z,84.17
2022-12-24T04:13:47.042Z,84.11
2022-12-24T04:18:50.034Z,83.72
2022-12-24T04:23:51.832Z,83.46
2022-12-24T04:28:53.796Z,83.38
2022-12-24T04:33:55.549Z,82.77
2022-12-24T04:38:57.391Z,82.56
2022-12-24T04:43:59.596Z,82.00
2022-12-24T04:49:02.331Z,81.84
2022-12-24T04:54:04.327Z,81.59
2022-12-24T04:59:06.207Z,81.79
2022-12-24T05:04:09.238Z,81.92
2022-12-24T05:09:11.085Z,82.08
2022-12-24T05:14:12.996Z,81.82
2022-12-24T05:19:14.836Z,81.85
2022-12-24T05:24:35.028Z,82.07
2022-12-24T05:29:36.936Z,81.70
2022-12-24T05:34:39.016Z,81.63
2022-12-24T05:39:40.849Z,81.44
2022-12-24T05:44:42.870Z,81.48
2022-12-24T05:49:45.247Z,81.33
2022-12-24T05:54:47.061Z,81.19
2022-12-24T05:59:49.399Z,81.00
2022-12-24T06:04:51.297Z,81.18
2022-12-24T06:09:55.846Z,80.96
2022-12-24T06:14:57.676Z,81.28
2022-12-24T06:19:59.533Z,81.11
2022-12-24T06:25:01.423Z,81.26
2022-12-24T06:30:03.963Z,81.26
2022-12-24T06:35:06.119Z,81.12
2022-12-24T06:40:08.617Z,81.19
2022-12-24T06:45:10.958Z,81.16
2022-12-24T06:50:13.449Z,80.80
2022-12-24T06:55:15.548Z,80.43
2022-12-24T07:00:17.845Z,79.91
2022-12-24T07:05:19.671Z,79.92
2022-12-24T07:10:22.075Z,79.51
2022-12-24T07:15:25.405Z,78.75
2022-12-24T07:20:27.270Z,77.59
2022-12-24T07:25:29.119Z,77.23
2022-12-24T07:30:31.189Z,76.49
2022-12-24T07:35:33.075Z,75.87
2022-12-24T07:40:35.427Z,75.84
2022-12-24T07:45:37.427Z,75.70
2022-12-24T07:50:39.235Z,75.15
2022-12-24T07:55:41.327Z,74.96
2022-12-24T08:00:43.308Z,75.14
2022-12-24T08:05:45.998Z,75.40
2022-12-24T08:10:47.803Z,75.70
2022-12-24T08:15:49.766Z,75.57
2022-12-24T08:20:51.891Z,76.02
2022-12-24T08:25:54.165Z,76.53
2022-12-24T08:30:55.977Z,76.52
2022-12-24T08:35:58.427Z,76.74
2022-12-24T08:41:09.571Z,76.82
2022-12-24T08:46:11.544Z,76.78
2022-12-24T08:51:13.532Z,76.79
2022-12-24T08:56:15.402Z,76.55
2022-12-24T09:01:19.997Z,76.11
2022-12-24T09:06:22.024Z,75.58
2022-12-24T09:11:24.440Z,75.61
2022-12-24T09:16:30.338Z,75.17
2022-12-24T09:21:32.254Z,75.00
2022-12-24T09:26:39.014Z,74.12
2022-12-24T09:31:41.079Z,72.72
2022-12-24T09:36:42.975Z,72.22
2022-12-24T09:42:03.472Z,71.38
2022-12-24T09:47:19.827Z,71.13
2022-12-24T09:52:35.855Z,70.96
2022-12-24T09:57:41.913Z,71.15
2022-12-24T10:02:43.802Z,70.89
2022-12-24T10:08:14.252Z,70.46
2022-12-24T10:13:49.016Z,70.74
2022-12-24T10:19:02.628Z,71.19
2022-12-24T10:24:26.302Z,71.02
2022-12-24T10:29:32.457Z,70.96
2022-12-24T10:34:41.899Z,70.83
2022-12-24T10:39:46.484Z,70.70
2022-12-24T10:44:54.927Z,70.90
2022-12-24T10:50:28.272Z,71.37
2022-12-24T10:55:30.156Z,71.51
2022-12-24T11:00:36.238Z,71.47
2022-12-24T11:05:39.460Z,71.71
2022-12-24T11:10:45.528Z,71.95
2022-12-24T11:15:47.507Z,72.09
2022-12-24T11:20:52.429Z,72.33
2022-12-24T11:25:57.202Z,72.53
2022-12-24T11:31:04.624Z,72.97
2022-12-24T11:36:12.359Z,73.74
2022-12-24T11:41:14.292Z,74.30
2022-12-24T11:46:40.777Z,74.87
2022-12-24T11:52:21.482Z,75.08
2022-12-24T11:57:31.982Z,75.19
2022-12-24T12:02:38.589Z,75.26
2022-12-24T12:07:42.509Z,75.34
2022-12-24T12:12:59.683Z,75.49
2022-12-24T12:18:24.031Z,75.24
2022-12-24T12:23:33.484Z,75.39
2022-12-24T12:29:04.148Z,75.40
2022-12-24T12:34:23.867Z,75.39
2022-12-24T12:39:25.729Z,75.42
2022-12-24T12:44:45.529Z,75.51
2022-12-24T12:50:10.076Z,75.70
2022-12-24T12:55:35.837Z,75.77
2022-12-24T13:00:45.320Z,75.89
2022-12-24T13:06:02.339Z,75.89
2022-12-24T13:11:54.045Z,75.94
2022-12-24T13:17:18.402Z,75.90
2022-12-24T13:22:22.095Z,75.89
2022-12-24T13:27:27.793Z,75.86
2022-12-24T13:32:49.956Z,75.88
2022-12-24T13:37:52.097Z,75.75
2022-12-24T13:43:01.199Z,75.60
2022-12-24T13:48:19.036Z,75.66
2022-12-24T13:53:35.281Z,75.55
2022-12-24T13:58:41.484Z,75.16
2022-12-24T14:03:53.549Z,75.12
2022-12-24T14:08:58.297Z,75.08
2022-12-24T14:14:05.951Z,75.18
2022-12-24T14:19:22.261Z,75.24
2022-12-24T14:24:28.068Z,75.30
2022-12-24T14:29:36.085Z,75.23
2022-12-24T14:34:37.918Z,75.32
2022-12-24T14:39:44.554Z,75.35
2022-12-24T14:45:02.577Z,75.47
2022-12-24T14:50:31.584Z,75.50
2022-12-24T14:55:41.287Z,75.60
2022-12-24T15:00:43.619Z,75.50
2022-12-24T15:05:45.976Z,75.61
2022-12-24T15:10:52.665Z,75.64
2022-12-24T15:15:56.297Z,75.70
2022-12-24T15:21:04.514Z,75.75
2022-12-24T15:26:19.604Z,75.76
2022-12-24T15:31:24.838Z,75.75
2022-12-24T15:36:33.287Z,75.55
2022-12-24T15:42:01.939Z,75.72
2022-12-24T15:47:05.282Z,75.50
2022-12-24T15:52:11.125Z,75.03
2022-12-24T15:57:29.805Z,75.14
2022-12-24T16:02:45.504Z,75.21
2022-12-24T16:08:24.361Z,74.97
2022-12-24T16:13:31.122Z,74.90
2022-12-24T16:18:40.255Z,75.06
2022-12-24T16:23:48.200Z,75.03
2022-12-24T16:28:50.933Z,74.78
2022-12-24T16:33:54.763Z,74.76
2022-12-24T16:39:17.041Z,74.97
2022-12-24T16:44:19.059Z,74.84
2022-12-24T16:49:23.127Z,74.93
2022-12-24T16:54:25.012Z,74.94
2022-12-24T16:59:26.832Z,74.99
2022-12-24T17:04:31.359Z,74.82
2022-12-24T17:09:36.067Z,74.99
2022-12-24T17:14:42.455Z,74.98
2022-12-24T17:19:44.411Z,74.90
2022-12-24T17:24:46.986Z,75.07
2022-12-24T17:29:48.925Z,74.97
2022-12-24T17:34:50.818Z,75.07
2022-12-24T17:39:52.750Z,75.03
2022-12-24T17:44:54.577Z,75.23
2022-12-24T17:49:56.305Z,75.22
2022-12-24T17:54:58.278Z,75.33
2022-12-24T18:00:00.854Z,75.33
2022-12-24T18:05:04.519Z,75.30
2022-12-24T18:10:07.103Z,75.24
2022-12-24T18:15:09.422Z,75.34
2022-12-24T18:20:11.705Z,75.35
2022-12-24T18:25:13.711Z,75.55
2022-12-24T18:30:15.706Z,75.62
2022-12-24T18:35:17.722Z,75.55
2022-12-24T18:40:20.648Z,75.57
2022-12-24T18:45:22.502Z,75.45
2022-12-24T18:50:24.349Z,75.71
2022-12-24T18:55:26.216Z,75.59
2022-12-24T19:00:28.137Z,75.55
2022-12-24T19:05:31.001Z,75.54
2022-12-24T19:10:32.788Z,75.65
2022-12-24T19:15:36.114Z,75.68
2022-12-24T19:20:39.816Z,75.89
2022-12-24T19:25:41.677Z,75.77
2022-12-24T19:30:43.494Z,75.69
2022-12-24T19:35:45.371Z,75.90
2022-12-24T19:40:47.205Z,75.83
2022-12-24T19:45:49.074Z,75.74
2022-12-24T19:50:51.093Z,75.91
2022-12-24T19:55:52.833Z,76.13
2022-12-24T20:00:55.579Z,75.98
2022-12-24T20:05:57.354Z,76.13
2022-12-24T20:10:59.157Z,76.08
2022-12-24T20:16:13.330Z,76.16
2022-12-24T20:21:15.112Z,76.38
2022-12-24T20:26:19.760Z,76.33
2022-12-24T20:31:28.135Z,76.41
2022-12-24T20:36:31.757Z,76.53
2022-12-24T20:41:34.127Z,76.40
2022-12-24T20:46:36.033Z,76.52
2022-12-24T20:51:37.968Z,76.43
2022-12-24T20:56:40.668Z,76.36
2022-12-24T21:01:42.600Z,76.39
2022-12-24T21:06:44.720Z,76.50
2022-12-24T21:11:52.371Z,76.55
2022-12-24T21:16:57.241Z,76.54
2022-12-24T21:21:59.164Z,76.45
2022-12-24T21:27:01.732Z,76.51
2022-12-24T21:32:03.541Z,76.73
2022-12-24T21:37:05.376Z,76.60
2022-12-24T21:42:07.266Z,76.50
2022-12-24T21:47:10.044Z,76.33
2022-12-24T21:52:11.856Z,76.21
2022-12-24T21:57:32.151Z,76.32
2022-12-24T22:02:34.208Z,76.44
2022-12-24T22:07:55.031Z,76.35
2022-12-24T22:13:06.292Z,76.53
2022-12-24T22:18:08.295Z,76.48
2022-12-24T22:23:11.555Z,76.68
2022-12-24T22:28:13.609Z,76.61
2022-12-24T22:33:15.520Z,76.68
2022-12-24T22:38:17.638Z,76.53
2022-12-24T22:43:19.480Z,76.69
2022-12-24T22:48:21.227Z,76.68
2022-12-24T22:53:23.146Z,76.65
2022-12-24T22:58:28.329Z,76.71
2022-12-24T23:03:30.668Z,76.55
2022-12-24T23:08:35.755Z,76.62
2022-12-24T23:13:58.372Z,76.56
2022-12-24T23:19:02.785Z,76.68
2022-12-24T23:24:05.028Z,76.88
2022-12-24T23:29:06.881Z,76.99
2022-12-24T23:34:08.769Z,77.12
2022-12-24T23:39:13.758Z,77.39
2022-12-24T23:44:15.711Z,77.28
2022-12-24T23:49:17.451Z,77.37
2022-12-24T23:54:19.446Z,77.67
2022-12-24T23:59:21.299Z,77.69
